Time;durP1;ratioP1;P1;durP2;ratioP2;P2;SDS_P1;SDS_P2;PMS_P1;PMS_P2;Temp;Humidity;BMP_temperature;BMP_pressure;BME280_temperature;BME280_humidity;BME280_pressure;Samples;Min_cycle;Max_cycle;Signal;HPM_P1;HPM_P2
2022/10/10 00:02:13;;;;;;;0.30;0.30;;;9.20;99.90;;;;;;5044939;28;20182;-92
2022/10/10 00:04:39;;;;;;;0.20;0.20;;;9.20;99.90;;;;;;5057223;28;20199;-92
2022/10/10 00:07:04;;;;;;;0.20;0.20;;;9.20;99.90;;;;;;5058126;28;20289;-94
2022/10/10 00:09:30;;;;;;;0.30;0.30;;;9.10;99.90;;;;;;5056198;28;20184;-94
2022/10/10 00:11:56;;;;;;;0.30;0.30;;;9.00;99.90;;;;;;5042226;28;20190;-95
2022/10/10 00:14:21;;;;;;;0.20;0.20;;;9.10;99.90;;;;;;5050457;28;20203;-92
2022/10/10 00:16:47;;;;;;;0.30;0.30;;;9.10;99.90;;;;;;5040617;28;20217;-95
2022/10/10 00:19:12;;;;;;;0.20;0.20;;;9.10;99.90;;;;;;5044725;28;20184;-93
2022/10/10 00:21:38;;;;;;;0.30;0.30;;;9.10;99.90;;;;;;5053837;28;20191;-89
2022/10/10 00:24:03;;;;;;;0.20;0.20;;;9.10;99.90;;;;;;5050265;28;20188;-93
2022/10/10 00:26:29;;;;;;;0.30;0.30;;;9.00;99.90;;;;;;5054924;28;20301;-93
2022/10/10 00:28:55;;;;;;;0.30;0.30;;;9.00;99.90;;;;;;5049251;28;20178;-94
2022/10/10 00:31:20;;;;;;;0.30;0.30;;;9.00;99.90;;;;;;5049326;28;20241;-88
2022/10/10 00:33:46;;;;;;;0.23;0.23;;;9.00;99.90;;;;;;5040505;28;20188;-92
2022/10/10 00:36:11;;;;;;;0.30;0.30;;;9.00;99.90;;;;;;5081557;28;20574;-94
2022/10/10 00:38:37;;;;;;;0.23;0.23;;;9.00;99.90;;;;;;5055580;28;20185;-90
2022/10/10 00:41:04;;;;;;;0.20;0.20;;;9.00;99.90;;;;;;5052712;28;20261;-94
2022/10/10 00:43:30;;;;;;;0.20;0.20;;;9.00;99.90;;;;;;5049081;28;20189;-90
2022/10/10 00:45:56;;;;;;;0.30;0.30;;;9.00;99.90;;;;;;5053551;28;20481;-94
2022/10/10 00:48:26;;;;;;;0.27;0.27;;;9.00;99.90;;;;;;5041037;28;20587;-93
2022/10/10 00:50:56;;;;;;;0.20;0.20;;;9.00;99.90;;;;;;5055224;28;20187;-95
2022/10/10 00:53:27;;;;;;;0.30;0.30;;;8.90;99.90;;;;;;5047529;28;20950;-92
2022/10/10 00:55:53;;;;;;;0.30;0.30;;;8.90;99.90;;;;;;5048779;28;20516;-94
2022/10/10 00:58:20;;;;;;;0.30;0.30;;;8.90;99.90;;;;;;5046212;28;20944;-92
2022/10/10 01:00:46;;;;;;;0.23;0.23;;;8.80;99.90;;;;;;5045848;28;20535;-89
2022/10/10 01:03:11;;;;;;;0.20;0.20;;;8.80;99.90;;;;;;5045946;28;20545;-93
2022/10/10 01:05:38;;;;;;;0.30;0.30;;;8.80;99.90;;;;;;5039694;28;20686;-91
2022/10/10 01:08:05;;;;;;;0.30;0.30;;;8.80;99.90;;;;;;5062103;28;20183;-93
2022/10/10 01:10:38;;;;;;;0.30;0.30;;;8.70;99.90;;;;;;5047596;28;20449;-93
2022/10/10 01:13:29;;;;;;;0.30;0.30;;;8.70;99.90;;;;;;5055856;28;20968;-93
2022/10/10 01:15:58;;;;;;;0.30;0.30;;;8.70;99.90;;;;;;5042473;28;20488;-92
2022/10/10 01:18:32;;;;;;;0.30;0.30;;;8.80;99.90;;;;;;5067535;28;20445;-93
2022/10/10 01:21:31;;;;;;;0.30;0.30;;;8.70;99.90;;;;;;5055083;28;20538;-92
2022/10/10 01:24:06;;;;;;;0.23;0.23;;;8.70;99.90;;;;;;5036173;28;20444;-94
2022/10/10 01:27:07;;;;;;;0.20;0.20;;;8.70;99.90;;;;;;5056756;28;20476;-92
2022/10/10 01:29:54;;;;;;;0.30;0.30;;;8.70;99.90;;;;;;5054880;28;20478;-92
2022/10/10 01:32:41;;;;;;;0.30;0.30;;;8.60;99.90;;;;;;5046345;28;20453;-93
2022/10/10 01:35:35;;;;;;;0.30;0.30;;;8.60;99.90;;;;;;5050106;28;20450;-94
2022/10/10 01:38:29;;;;;;;0.30;0.30;;;8.60;99.90;;;;;;5044704;28;20469;-93
2022/10/10 01:41:13;;;;;;;0.30;0.30;;;8.60;99.90;;;;;;5039705;28;20537;-91
2022/10/10 01:43:38;;;;;;;0.30;0.30;;;8.60;99.90;;;;;;5051541;28;20445;-92
2022/10/10 01:46:18;;;;;;;0.30;0.30;;;8.60;99.90;;;;;;5049117;28;21360;-90
2022/10/10 01:48:46;;;;;;;0.20;0.20;;;8.60;99.90;;;;;;5039250;28;20218;-92
2022/10/10 01:51:28;;;;;;;0.20;0.20;;;8.60;99.90;;;;;;5047422;28;20436;-95
2022/10/10 01:54:21;;;;;;;0.30;0.30;;;8.60;99.90;;;;;;5045842;28;20441;-94
2022/10/10 01:57:15;;;;;;;0.30;0.30;;;8.60;99.90;;;;;;5051367;28;20489;-94
2022/10/10 02:00:02;;;;;;;0.20;0.20;;;8.60;99.90;;;;;;5036033;28;20483;-92
2022/10/10 02:02:31;;;;;;;0.27;0.27;;;8.60;99.90;;;;;;5038878;28;20545;-93
2022/10/10 02:05:05;;;;;;;0.30;0.30;;;8.60;99.90;;;;;;5052089;28;20511;-92
2022/10/10 02:07:48;;;;;;;0.30;0.30;;;8.50;99.90;;;;;;5047417;28;20459;-92
2022/10/10 02:10:19;;;;;;;0.30;0.30;;;8.60;99.90;;;;;;5046786;28;20441;-93
2022/10/10 02:12:47;;;;;;;0.30;0.30;;;8.60;99.90;;;;;;5054763;28;20449;-94
2022/10/10 02:15:15;;;;;;;0.20;0.20;;;8.50;99.90;;;;;;5047794;28;20537;-93
2022/10/10 02:17:44;;;;;;;0.30;0.30;;;8.60;99.90;;;;;;5049911;28;20441;-93
2022/10/10 02:20:12;;;;;;;0.30;0.30;;;8.50;99.90;;;;;;5044102;28;20687;-93
2022/10/10 02:22:40;;;;;;;0.20;0.20;;;8.50;99.90;;;;;;5046483;28;20545;-93
2022/10/10 02:25:06;;;;;;;0.30;0.30;;;8.50;99.90;;;;;;5045077;28;21014;-91
2022/10/10 02:28:08;;;;;;;0.30;0.30;;;8.40;99.90;;;;;;5039026;28;20453;-92
2022/10/10 02:30:37;;;;;;;0.30;0.30;;;8.40;99.90;;;;;;5045108;28;20441;-92
2022/10/10 02:33:05;;;;;;;0.30;0.30;;;8.30;99.90;;;;;;5042616;28;20434;-92
2022/10/10 02:35:36;;;;;;;0.30;0.30;;;8.30;99.90;;;;;;5044580;28;20453;-94
2022/10/10 02:38:06;;;;;;;0.20;0.20;;;8.30;99.90;;;;;;5052127;28;20507;-94
2022/10/10 02:40:34;;;;;;;0.23;0.23;;;8.30;99.90;;;;;;5044596;28;20445;-91
2022/10/10 02:43:02;;;;;;;0.23;0.23;;;8.30;99.90;;;;;;5078755;28;20453;-95
2022/10/10 02:45:29;;;;;;;0.30;0.30;;;8.30;99.90;;;;;;5053450;28;20509;-93
2022/10/10 02:47:55;;;;;;;0.30;0.30;;;8.30;99.90;;;;;;5056737;28;20536;-92
2022/10/10 02:50:22;;;;;;;0.30;0.30;;;8.30;99.90;;;;;;5053323;28;20972;-93
2022/10/10 02:52:47;;;;;;;0.30;0.30;;;8.30;99.90;;;;;;5053002;28;20195;-90
2022/10/10 02:55:13;;;;;;;0.30;0.30;;;8.20;99.90;;;;;;5038942;28;20500;-94
2022/10/10 02:57:38;;;;;;;0.30;0.30;;;8.20;99.90;;;;;;5049730;28;20195;-94
2022/10/10 03:00:05;;;;;;;0.30;0.30;;;8.20;99.90;;;;;;5049982;28;20191;-93
2022/10/10 03:02:31;;;;;;;0.30;0.30;;;8.10;99.90;;;;;;5047722;28;20202;-93
2022/10/10 03:04:57;;;;;;;0.30;0.30;;;8.20;99.90;;;;;;5035782;28;20473;-94
2022/10/10 03:07:24;;;;;;;0.20;0.20;;;8.20;99.90;;;;;;5046103;28;20498;-93
2022/10/10 03:09:50;;;;;;;0.30;0.30;;;8.20;99.90;;;;;;5049294;28;20990;-92
2022/10/10 03:12:15;;;;;;;0.30;0.30;;;8.10;99.90;;;;;;5052389;28;20452;-92
2022/10/10 03:14:41;;;;;;;0.30;0.30;;;8.20;99.90;;;;;;5043675;28;20448;-94
2022/10/10 03:17:06;;;;;;;0.30;0.30;;;8.10;99.90;;;;;;5048866;28;20198;-93
2022/10/10 03:19:32;;;;;;;0.30;0.30;;;8.10;99.90;;;;;;5061911;28;20658;-91
2022/10/10 03:21:57;;;;;;;0.30;0.30;;;8.10;99.90;;;;;;5060865;28;20186;-93
2022/10/10 03:24:23;;;;;;;0.30;0.30;;;8.00;99.90;;;;;;5057369;28;20222;-92
2022/10/10 03:26:48;;;;;;;0.30;0.30;;;8.00;99.90;;;;;;5059996;28;20852;-91
2022/10/10 03:29:14;;;;;;;0.30;0.30;;;8.00;99.90;;;;;;5057652;28;20178;-92
2022/10/10 03:31:39;;;;;;;0.30;0.30;;;7.90;99.90;;;;;;5039219;28;20686;-93
2022/10/10 03:34:05;;;;;;;0.30;0.30;;;7.90;99.90;;;;;;5048097;28;20278;-94
2022/10/10 03:36:30;;;;;;;0.20;0.20;;;7.90;99.90;;;;;;5055231;28;20218;-94
2022/10/10 03:38:56;;;;;;;0.30;0.30;;;7.90;99.90;;;;;;5051889;28;20210;-92
2022/10/10 03:41:21;;;;;;;0.30;0.30;;;7.90;99.90;;;;;;5039129;28;20187;-93
2022/10/10 03:43:47;;;;;;;0.27;0.27;;;7.90;99.90;;;;;;5044752;28;20230;-94
2022/10/10 03:46:13;;;;;;;0.30;0.30;;;7.80;99.90;;;;;;5053168;28;20226;-92
2022/10/10 03:48:38;;;;;;;0.30;0.30;;;7.80;99.90;;;;;;5038663;28;20226;-93
2022/10/10 03:51:05;;;;;;;0.30;0.30;;;7.80;99.90;;;;;;5046141;28;20198;-92
2022/10/10 03:53:30;;;;;;;0.30;0.30;;;7.80;99.90;;;;;;5053434;28;20186;-93
2022/10/10 03:55:56;;;;;;;0.30;0.30;;;7.70;99.90;;;;;;5055963;28;20455;-92
2022/10/10 03:58:22;;;;;;;0.27;0.27;;;7.70;99.90;;;;;;5042301;28;20231;-91
2022/10/10 04:00:55;;;;;;;0.20;0.20;;;7.70;99.90;;;;;;5042362;28;20198;-91
2022/10/10 04:03:21;;;;;;;0.30;0.30;;;7.70;99.90;;;;;;5043392;28;20190;-93
2022/10/10 04:05:46;;;;;;;0.30;0.30;;;7.70;99.90;;;;;;5052614;28;20542;-91
2022/10/10 04:08:12;;;;;;;0.30;0.30;;;7.60;99.90;;;;;;5054657;28;20940;-92
2022/10/10 04:10:37;;;;;;;0.30;0.30;;;7.60;99.90;;;;;;5044499;28;20194;-92
2022/10/10 04:13:03;;;;;;;0.30;0.30;;;7.50;99.90;;;;;;5049019;28;20194;-92
2022/10/10 04:15:29;;;;;;;0.30;0.30;;;7.40;99.90;;;;;;5046055;28;20190;-92
2022/10/10 04:17:55;;;;;;;0.27;0.27;;;7.50;99.90;;;;;;5046788;28;20346;-92
2022/10/10 04:20:20;;;;;;;0.20;0.20;;;7.50;99.90;;;;;;5050549;28;20591;-92
2022/10/10 04:22:46;;;;;;;0.20;0.20;;;7.50;99.90;;;;;;5052731;28;20483;-93
2022/10/10 04:25:11;;;;;;;0.30;0.30;;;7.50;99.90;;;;;;5048973;28;20214;-93
2022/10/10 04:27:37;;;;;;;0.30;0.30;;;7.50;99.90;;;;;;5042670;28;20241;-92
2022/10/10 04:30:04;;;;;;;0.23;0.23;;;7.50;99.90;;;;;;5035317;28;20602;-91
2022/10/10 04:32:30;;;;;;;0.30;0.30;;;7.50;99.90;;;;;;5043131;28;20183;-93
2022/10/10 04:34:55;;;;;;;0.30;0.30;;;7.50;99.90;;;;;;5040686;28;20472;-94
2022/10/10 04:37:21;;;;;;;0.23;0.23;;;7.50;99.90;;;;;;5036556;28;20253;-92
2022/10/10 04:39:46;;;;;;;0.30;0.30;;;7.40;99.90;;;;;;5043560;28;20278;-91
2022/10/10 04:42:12;;;;;;;0.30;0.30;;;7.40;99.90;;;;;;5047725;28;20684;-90
2022/10/10 04:44:37;;;;;;;0.30;0.30;;;7.40;99.90;;;;;;5050279;28;20227;-92
2022/10/10 04:47:03;;;;;;;0.30;0.30;;;7.40;99.90;;;;;;5051760;28;20246;-90
2022/10/10 04:49:28;;;;;;;0.30;0.30;;;7.40;99.90;;;;;;5049145;28;20194;-93
2022/10/10 04:51:54;;;;;;;0.30;0.30;;;7.40;99.90;;;;;;5042892;28;20175;-91
2022/10/10 04:54:19;;;;;;;0.30;0.30;;;7.40;99.90;;;;;;5047313;28;20229;-93
2022/10/10 04:56:45;;;;;;;0.30;0.30;;;7.30;99.90;;;;;;5043514;28;20236;-92
2022/10/10 04:59:10;;;;;;;0.30;0.30;;;7.30;99.90;;;;;;5049146;28;20908;-92
2022/10/10 05:01:36;;;;;;;0.23;0.23;;;7.30;99.90;;;;;;5050239;28;20190;-93
2022/10/10 05:04:02;;;;;;;0.30;0.30;;;7.30;99.90;;;;;;5039464;28;20187;-93
2022/10/10 05:06:27;;;;;;;0.30;0.30;;;7.30;99.90;;;;;;5037740;28;20722;-92
2022/10/10 05:08:53;;;;;;;0.30;0.30;;;7.30;99.90;;;;;;5059022;28;20197;-91
2022/10/10 05:11:18;;;;;;;0.30;0.30;;;7.30;99.90;;;;;;5049952;28;20285;-92
2022/10/10 05:13:44;;;;;;;0.30;0.30;;;7.20;99.90;;;;;;5049304;28;20674;-92
2022/10/10 05:16:09;;;;;;;0.20;0.20;;;7.20;99.90;;;;;;5037956;28;20183;-92
2022/10/10 05:18:37;;;;;;;0.40;0.40;;;7.20;99.90;;;;;;5038714;28;20187;-91
2022/10/10 05:21:06;;;;;;;0.30;0.30;;;7.20;99.90;;;;;;5046907;28;20183;-92
2022/10/10 05:23:32;;;;;;;0.30;0.30;;;7.20;99.90;;;;;;5049531;28;20449;-91
2022/10/10 05:25:57;;;;;;;0.30;0.30;;;7.20;99.90;;;;;;5046454;28;20484;-88
2022/10/10 05:28:23;;;;;;;0.30;0.30;;;7.20;99.90;;;;;;5046153;28;20490;-91
2022/10/10 05:30:52;;;;;;;0.30;0.30;;;7.10;99.90;;;;;;5047495;28;20562;-92
2022/10/10 05:33:18;;;;;;;0.30;0.30;;;7.10;99.90;;;;;;5077697;28;20183;-92
2022/10/10 05:35:43;;;;;;;0.30;0.30;;;7.10;99.90;;;;;;5061604;28;20956;-91
2022/10/10 05:38:09;;;;;;;0.30;0.30;;;7.10;99.90;;;;;;5045767;28;20217;-91
2022/10/10 05:40:37;;;;;;;0.30;0.30;;;7.10;99.90;;;;;;5058763;28;20195;-91
2022/10/10 05:43:03;;;;;;;0.30;0.30;;;7.10;99.90;;;;;;5042184;28;20647;-93
2022/10/10 05:45:28;;;;;;;0.30;0.30;;;7.10;99.90;;;;;;5046084;28;20491;-93
2022/10/10 05:47:54;;;;;;;0.30;0.30;;;7.10;99.90;;;;;;5044669;28;20194;-91
2022/10/10 05:50:53;;;;;;;0.30;0.30;;;7.10;99.90;;;;;;5041331;28;20175;-94
2022/10/10 05:53:21;;;;;;;0.30;0.30;;;7.10;99.90;;;;;;5029445;28;20605;-93
2022/10/10 05:55:47;;;;;;;0.30;0.30;;;7.10;99.90;;;;;;5050648;28;20479;-91
2022/10/10 05:58:13;;;;;;;0.30;0.30;;;7.10;99.90;;;;;;5045768;28;20442;-92
2022/10/10 06:00:43;;;;;;;0.30;0.30;;;7.10;99.90;;;;;;5049439;28;20714;-93
2022/10/10 06:03:12;;;;;;;0.30;0.30;;;7.10;99.90;;;;;;5031924;28;20483;-93
2022/10/10 06:05:47;;;;;;;0.30;0.30;;;7.10;99.90;;;;;;5041082;28;20480;-92
2022/10/10 06:08:12;;;;;;;0.30;0.30;;;7.20;99.90;;;;;;5052039;28;20480;-92
2022/10/10 06:10:44;;;;;;;0.30;0.30;;;7.20;99.90;;;;;;5051790;28;20500;-90
2022/10/10 06:13:10;;;;;;;0.40;0.40;;;7.20;99.90;;;;;;5045666;28;20179;-91
2022/10/10 06:15:36;;;;;;;0.30;0.30;;;7.30;99.90;;;;;;5036013;28;20454;-90
2022/10/10 06:18:02;;;;;;;0.30;0.30;;;7.20;99.90;;;;;;5050819;28;20538;-93
2022/10/10 06:20:27;;;;;;;0.30;0.30;;;7.20;99.90;;;;;;5053205;28;20332;-92
2022/10/10 06:22:53;;;;;;;0.30;0.30;;;7.30;99.90;;;;;;5056117;28;20833;-91
2022/10/10 06:25:19;;;;;;;0.30;0.30;;;7.40;99.90;;;;;;5054185;28;20218;-93
2022/10/10 06:27:45;;;;;;;0.30;0.30;;;7.40;99.90;;;;;;5067375;28;20198;-92
2022/10/10 06:30:11;;;;;;;0.30;0.30;;;7.40;99.90;;;;;;5062936;28;20432;-93
2022/10/10 06:32:37;;;;;;;0.30;0.30;;;7.50;99.90;;;;;;5060386;28;20190;-90
2022/10/10 06:35:03;;;;;;;0.30;0.30;;;7.50;99.90;;;;;;5039970;28;20210;-87
2022/10/10 06:37:28;;;;;;;0.30;0.30;;;7.60;99.90;;;;;;5055560;28;23050;-91
2022/10/10 06:39:55;;;;;;;0.30;0.30;;;7.50;99.90;;;;;;5046892;28;20193;-90
2022/10/10 06:42:21;;;;;;;0.30;0.30;;;7.50;99.90;;;;;;5050778;28;20205;-89
2022/10/10 06:44:46;;;;;;;0.30;0.30;;;7.60;99.90;;;;;;5050271;28;21258;-92
2022/10/10 06:47:12;;;;;;;0.30;0.30;;;7.70;99.90;;;;;;5048995;28;20659;-93
2022/10/10 06:49:37;;;;;;;0.30;0.30;;;7.70;99.90;;;;;;5046933;28;20187;-92
2022/10/10 06:52:03;;;;;;;0.30;0.30;;;7.80;99.90;;;;;;5046746;28;20248;-90
2022/10/10 06:54:29;;;;;;;0.30;0.30;;;7.90;99.90;;;;;;5050885;28;20680;-92
2022/10/10 06:56:54;;;;;;;0.30;0.30;;;7.90;99.90;;;;;;5056740;28;20186;-91
2022/10/10 06:59:20;;;;;;;0.30;0.30;;;8.00;99.90;;;;;;5042017;28;20187;-89
2022/10/10 07:01:45;;;;;;;0.30;0.30;;;8.10;99.90;;;;;;5057424;28;20271;-89
2022/10/10 07:04:12;;;;;;;0.30;0.30;;;8.20;99.90;;;;;;5043166;28;20187;-89
2022/10/10 07:06:37;;;;;;;0.20;0.20;;;8.30;99.90;;;;;;5053615;28;20244;-93
2022/10/10 07:09:03;;;;;;;0.30;0.30;;;8.50;99.90;;;;;;5048634;28;20434;-89
2022/10/10 07:11:29;;;;;;;0.20;0.20;;;8.70;99.90;;;;;;5048218;28;20183;-89
2022/10/10 07:13:54;;;;;;;0.20;0.20;;;8.80;99.90;;;;;;5051706;28;20197;-89
2022/10/10 07:16:20;;;;;;;0.30;0.30;;;8.90;99.90;;;;;;5049265;28;20182;-90
2022/10/10 07:18:46;;;;;;;0.30;0.30;;;9.00;99.90;;;;;;5040681;28;20187;-93
2022/10/10 07:21:11;;;;;;;0.20;0.20;;;9.20;99.90;;;;;;5064991;28;20190;-91
2022/10/10 07:23:38;;;;;;;0.20;0.20;;;9.20;99.90;;;;;;5053843;28;20205;-92
2022/10/10 07:26:06;;;;;;;0.20;0.20;;;9.30;99.90;;;;;;5051005;28;20210;-90
2022/10/10 07:28:32;;;;;;;0.20;0.20;;;9.50;99.90;;;;;;5050370;28;20443;-91
2022/10/10 07:31:07;;;;;;;0.30;0.30;;;9.60;99.90;;;;;;5054281;28;20444;-93
2022/10/10 07:33:42;;;;;;;0.20;0.20;;;9.50;99.90;;;;;;5049738;28;20464;-90
2022/10/10 07:36:07;;;;;;;0.30;0.30;;;9.50;99.90;;;;;;5053052;28;20436;-93
2022/10/10 07:38:34;;;;;;;0.20;0.20;;;9.50;99.90;;;;;;5059325;28;20814;-91
2022/10/10 07:41:03;;;;;;;0.20;0.20;;;9.60;99.90;;;;;;5044652;28;20178;-88
2022/10/10 07:43:28;;;;;;;0.20;0.20;;;9.50;99.90;;;;;;5054978;28;20501;-95
2022/10/10 07:45:54;;;;;;;0.20;0.20;;;9.50;99.90;;;;;;5044746;28;20580;-89
2022/10/10 07:48:19;;;;;;;0.30;0.30;;;9.60;99.90;;;;;;5045003;28;20206;-90
2022/10/10 07:50:45;;;;;;;0.20;0.20;;;9.70;99.90;;;;;;5043141;28;20534;-86
2022/10/10 07:53:11;;;;;;;0.30;0.30;;;9.80;99.90;;;;;;5050064;28;22391;-84
2022/10/10 07:55:43;;;;;;;0.20;0.20;;;9.80;99.90;;;;;;5059951;28;20185;-85
2022/10/10 07:58:10;;;;;;;0.20;0.20;;;9.80;99.90;;;;;;5045160;28;20452;-91
2022/10/10 08:00:39;;;;;;;0.20;0.20;;;10.00;99.90;;;;;;5042906;28;20461;-86
2022/10/10 08:03:05;;;;;;;0.20;0.20;;;10.10;99.90;;;;;;5039921;28;21063;-87
2022/10/10 08:05:31;;;;;;;0.20;0.20;;;10.10;99.90;;;;;;5040050;28;20513;-86
2022/10/10 08:07:56;;;;;;;0.20;0.20;;;10.30;99.90;;;;;;5043967;28;20952;-88
2022/10/10 08:10:22;;;;;;;0.20;0.20;;;10.40;99.90;;;;;;5056324;28;20219;-91
2022/10/10 08:12:47;;;;;;;0.20;0.20;;;10.50;99.90;;;;;;5048679;28;20224;-88
2022/10/10 08:15:13;;;;;;;0.20;0.20;;;10.60;99.90;;;;;;5053132;28;20214;-89
2022/10/10 08:17:38;;;;;;;0.20;0.20;;;10.70;99.90;;;;;;5044110;28;20199;-85
2022/10/10 08:20:04;;;;;;;0.20;0.20;;;10.70;99.90;;;;;;5045754;28;20179;-83
2022/10/10 08:22:30;;;;;;;0.20;0.20;;;10.80;99.90;;;;;;5045577;28;20190;-80
2022/10/10 08:24:56;;;;;;;0.20;0.20;;;11.10;99.90;;;;;;5041119;28;20438;-91
2022/10/10 08:27:21;;;;;;;0.20;0.20;;;11.30;99.90;;;;;;5038963;28;20281;-86
2022/10/10 08:29:47;;;;;;;0.20;0.20;;;11.30;99.90;;;;;;5043798;28;20183;-84
2022/10/10 08:32:12;;;;;;;0.20;0.20;;;11.50;99.90;;;;;;5034764;28;20186;-84
2022/10/10 08:34:38;;;;;;;0.20;0.20;;;11.60;99.90;;;;;;5045652;28;20504;-87
2022/10/10 08:37:03;;;;;;;0.20;0.20;;;11.50;99.90;;;;;;5047411;28;20202;-85
2022/10/10 08:39:29;;;;;;;0.20;0.20;;;11.80;99.90;;;;;;5037565;28;20185;-84
2022/10/10 08:42:00;;;;;;;0.20;0.20;;;11.90;99.90;;;;;;5051007;28;20217;-85
2022/10/10 08:44:45;;;;;;;0.20;0.20;;;12.00;99.90;;;;;;5049568;28;20752;-84
2022/10/10 08:47:13;;;;;;;0.20;0.20;;;12.20;99.90;;;;;;5051284;28;20473;-87
2022/10/10 08:49:57;;;;;;;0.20;0.20;;;12.20;99.90;;;;;;5043786;28;21103;-85
2022/10/10 08:52:30;;;;;;;0.20;0.20;;;12.10;99.90;;;;;;5041160;28;21282;-84
2022/10/10 08:55:00;;;;;;;0.10;0.10;;;12.30;99.90;;;;;;5044008;28;20452;-88
2022/10/10 08:57:34;;;;;;;0.20;0.20;;;12.30;99.90;;;;;;5044491;28;20960;-83
2022/10/10 09:00:04;;;;;;;0.17;0.17;;;12.80;99.90;;;;;;5032991;28;20442;-87
2022/10/10 09:02:48;;;;;;;0.20;0.20;;;12.80;99.90;;;;;;5045969;28;20448;-85
2022/10/10 09:05:18;;;;;;;0.20;0.20;;;13.10;99.90;;;;;;5062175;28;20464;-85
2022/10/10 09:08:09;;;;;;;0.20;0.20;;;13.20;99.90;;;;;;5043034;28;20516;-86
2022/10/10 09:11:01;;;;;;;0.20;0.20;;;13.20;99.90;;;;;;5045316;28;20449;-87
2022/10/10 09:13:30;;;;;;;0.20;0.20;;;13.30;99.90;;;;;;5047676;28;20562;-87
2022/10/10 09:16:00;;;;;;;0.10;0.10;;;13.40;99.90;;;;;;5040464;28;20435;-85
2022/10/10 09:18:40;;;;;;;0.10;0.10;;;13.50;99.90;;;;;;5048145;28;20441;-87
2022/10/10 09:21:16;;;;;;;0.20;0.20;;;13.50;99.90;;;;;;5047640;28;20929;-86
2022/10/10 09:23:57;;;;;;;0.20;0.20;;;13.50;99.90;;;;;;5050624;28;20409;-86
2022/10/10 09:26:30;;;;;;;0.10;0.10;;;13.50;99.90;;;;;;5042205;28;20477;-87
2022/10/10 09:29:16;;;;;;;0.10;0.10;;;13.90;99.90;;;;;;5045149;28;20494;-83
2022/10/10 09:31:48;;;;;;;0.10;0.10;;;14.00;99.90;;;;;;5048946;28;20944;-85
2022/10/10 09:34:34;;;;;;;0.10;0.10;;;14.20;99.90;;;;;;5047219;28;20467;-85
2022/10/10 09:37:02;;;;;;;0.10;0.10;;;14.60;99.90;;;;;;5040779;28;20453;-85
2022/10/10 09:39:39;;;;;;;0.10;0.10;;;14.80;99.90;;;;;;5043919;28;20982;-84
2022/10/10 09:42:12;;;;;;;0.10;0.10;;;14.90;99.90;;;;;;5044315;28;20448;-83
2022/10/10 09:44:39;;;;;;;0.10;0.10;;;14.70;99.90;;;;;;5045060;28;20480;-86
2022/10/10 09:47:08;;;;;;;0.10;0.10;;;14.30;99.90;;;;;;5050128;28;20558;-86
2022/10/10 09:49:34;;;;;;;0.10;0.10;;;14.90;99.90;;;;;;5075287;28;20490;-86
2022/10/10 09:52:12;;;;;;;0.10;0.10;;;15.30;99.90;;;;;;5031774;28;20849;-84
2022/10/10 09:54:37;;;;;;;0.10;0.10;;;15.40;99.90;;;;;;5046035;28;20190;-86
2022/10/10 09:57:03;;;;;;;0.10;0.10;;;15.50;99.90;;;;;;5044757;28;20441;-86
2022/10/10 09:59:45;;;;;;;0.10;0.10;;;15.60;99.90;;;;;;5055412;28;20205;-88
2022/10/10 10:02:20;;;;;;;0.10;0.10;;;15.80;99.90;;;;;;5048762;28;20209;-88
2022/10/10 10:04:47;;;;;;;0.10;0.10;;;15.60;99.90;;;;;;5049062;28;20448;-89
2022/10/10 10:07:33;;;;;;;0.10;0.10;;;15.70;99.90;;;;;;5033548;28;20531;-92
2022/10/10 10:10:03;;;;;;;0.10;0.10;;;15.70;99.90;;;;;;5043583;28;20828;-88
2022/10/10 10:12:37;;;;;;;0.10;0.10;;;16.20;99.90;;;;;;5031021;28;20862;-88
2022/10/10 10:15:06;;;;;;;0.10;0.10;;;16.40;99.90;;;;;;5042958;28;20468;-87
2022/10/10 10:17:31;;;;;;;0.10;0.10;;;16.20;99.90;;;;;;5044618;28;20455;-88
2022/10/10 10:19:57;;;;;;;0.10;0.10;;;16.60;99.90;;;;;;5046683;28;20429;-89
2022/10/10 10:22:25;;;;;;;0.10;0.10;;;16.90;99.90;;;;;;5046970;28;20837;-88
2022/10/10 10:24:51;;;;;;;0.10;0.10;;;16.70;99.90;;;;;;5044173;28;20194;-88
2022/10/10 10:27:19;;;;;;;0.10;0.10;;;17.00;99.90;;;;;;5053003;28;20536;-89
2022/10/10 10:29:50;;;;;;;0.10;0.10;;;17.50;99.90;;;;;;5047507;28;20192;-96
2022/10/10 10:32:47;;;;;;;0.10;0.10;;;17.70;99.90;;;;;;5057690;28;20442;-96
2022/10/10 10:35:27;;;;;;;0.10;0.10;;;18.00;99.90;;;;;;5047645;28;20508;-96
2022/10/10 10:38:27;;;;;;;0.10;0.10;;;18.10;99.90;;;;;;5055610;28;20448;-94
2022/10/10 10:41:15;;;;;;;0.10;0.10;;;18.10;99.90;;;;;;5066380;23;20477;-96
2022/10/10 10:43:59;;;;;;;0.10;0.10;;;18.00;99.90;;;;;;5034905;28;20503;-95
2022/10/10 10:46:33;;;;;;;0.10;0.10;;;18.50;99.90;;;;;;5047173;28;20527;-94
2022/10/10 10:49:15;;;;;;;0.10;0.10;;;18.30;99.90;;;;;;5039307;28;20460;-96
2022/10/10 10:51:52;;;;;;;0.10;0.00;;;18.60;99.90;;;;;;5027321;28;20430;-90
2022/10/10 10:54:21;;;;;;;0.10;0.10;;;19.10;99.90;;;;;;5026981;28;20505;-94
2022/10/10 10:57:13;;;;;;;0.10;0.10;;;18.60;99.90;;;;;;5038535;28;20438;-96
2022/10/10 11:00:11;;;;;;;0.10;0.10;;;19.30;99.90;;;;;;5045876;28;20447;-95
2022/10/10 11:03:00;;;;;;;0.10;0.00;;;19.50;99.90;;;;;;5027436;28;20521;-93
2022/10/10 11:06:00;;;;;;;0.10;0.00;;;19.50;99.90;;;;;;5033749;28;20485;-96
2022/10/10 11:08:47;;;;;;;0.10;0.10;;;20.30;99.90;;;;;;5033747;28;21003;-96
2022/10/10 11:11:44;;;;;;;0.10;0.10;;;20.40;99.90;;;;;;5053299;28;20517;-93
2022/10/10 11:14:56;;;;;;;0.10;0.00;;;20.70;99.90;;;;;;5025772;28;20517;-95
2022/10/10 11:17:36;;;;;;;0.10;0.00;;;21.40;99.90;;;;;;4999339;28;20443;-96
2022/10/10 11:20:20;;;;;;;0.10;0.00;;;21.80;99.90;;;;;;4988634;28;20467;-95
2022/10/10 11:23:08;;;;;;;0.10;0.00;;;20.90;99.90;;;;;;5026209;28;20438;-95
2022/10/10 11:25:57;;;;;;;0.10;0.00;;;21.00;99.90;;;;;;5031409;28;20458;-93
2022/10/10 11:28:25;;;;;;;0.10;0.00;;;21.40;99.90;;;;;;5030079;28;20506;-96
2022/10/10 11:30:58;;;;;;;0.10;0.00;;;21.30;99.90;;;;;;5040242;28;20533;-96
2022/10/10 11:33:28;;;;;;;0.10;0.00;;;21.00;99.90;;;;;;5036552;28;20447;-96
2022/10/10 11:36:11;;;;;;;0.10;0.00;;;19.70;99.90;;;;;;5032737;28;20518;-96
2022/10/10 11:39:01;;;;;;;0.10;0.00;;;19.60;99.90;;;;;;5035649;28;20919;-96
2022/10/10 11:41:41;;;;;;;0.10;0.00;;;19.60;99.90;;;;;;5031289;28;20472;-95
2022/10/10 11:44:13;;;;;;;0.10;0.00;;;20.00;99.90;;;;;;5041609;28;20426;-96
2022/10/10 11:46:44;;;;;;;0.10;0.00;;;20.70;99.90;;;;;;5037269;28;20505;-96
2022/10/10 11:49:23;;;;;;;0.10;0.00;;;21.30;99.90;;;;;;5038505;28;20424;-96
2022/10/10 11:52:13;;;;;;;0.10;0.00;;;20.90;99.90;;;;;;5053599;28;20474;-95
2022/10/10 11:55:04;;;;;;;0.10;0.00;;;19.90;99.90;;;;;;5065228;28;20801;-95
2022/10/10 11:57:39;;;;;;;0.10;0.00;;;20.70;99.90;;;;;;5037264;28;20442;-94
2022/10/10 12:00:11;;;;;;;0.10;0.00;;;20.60;99.90;;;;;;5028562;28;20425;-96
2022/10/10 12:02:41;;;;;;;0.10;0.00;;;21.30;99.90;;;;;;5029391;28;20473;-96
2022/10/10 12:05:26;;;;;;;0.10;0.00;;;21.30;99.90;;;;;;5034056;28;20445;-96
2022/10/10 12:08:11;;;;;;;0.10;0.00;;;21.60;99.90;;;;;;5111042;22;20514;-95
2022/10/10 12:10:42;;;;;;;0.10;0.00;;;22.10;99.90;;;;;;5026665;28;20925;-95
2022/10/10 12:13:26;;;;;;;0.10;0.00;;;22.00;99.90;;;;;;5023769;28;20530;-95
2022/10/10 12:15:55;;;;;;;0.10;0.00;;;22.30;99.90;;;;;;5008682;28;20443;-90
2022/10/10 12:18:51;;;;;;;0.10;0.00;;;22.70;99.90;;;;;;5003208;28;20501;-89
2022/10/10 12:21:19;;;;;;;0.10;0.00;;;23.00;99.90;;;;;;5009775;28;20443;-89
2022/10/10 12:24:11;;;;;;;0.10;0.00;;;23.20;99.90;;;;;;5005123;28;20448;-89
2022/10/10 12:26:51;;;;;;;0.10;0.00;;;22.20;99.90;;;;;;5033072;28;20553;-94
2022/10/10 12:30:08;;;;;;;0.10;0.00;;;22.00;99.90;;;;;;5012831;28;20950;-91
2022/10/10 12:32:40;;;;;;;0.10;0.00;;;21.60;99.90;;;;;;5012248;28;20454;-88
2022/10/10 12:35:39;;;;;;;0.10;0.00;;;21.50;99.90;;;;;;5001767;28;20436;-90
2022/10/10 12:38:04;;;;;;;0.10;0.00;;;21.10;99.90;;;;;;5003428;28;20478;-90
2022/10/10 12:40:31;;;;;;;0.10;0.00;;;20.70;99.90;;;;;;5008981;28;20456;-88
2022/10/10 12:42:56;;;;;;;0.10;0.00;;;20.90;99.90;;;;;;5011562;28;20192;-92
2022/10/10 12:45:28;;;;;;;0.10;0.00;;;21.00;99.90;;;;;;5030501;28;20528;-90
2022/10/10 12:48:05;;;;;;;0.10;0.00;;;21.40;99.90;;;;;;5004767;28;20194;-89
2022/10/10 12:50:37;;;;;;;0.10;0.00;;;20.40;99.90;;;;;;5009025;28;20808;-92
2022/10/10 12:53:11;;;;;;;0.10;0.00;;;19.70;99.90;;;;;;5023707;28;20813;-89
2022/10/10 12:55:43;;;;;;;0.10;0.00;;;19.00;99.90;;;;;;5010130;28;20449;-91
2022/10/10 12:58:24;;;;;;;0.10;0.00;;;19.70;99.90;;;;;;5010435;28;20434;-89
2022/10/10 13:00:51;;;;;;;0.10;0.00;;;20.10;99.90;;;;;;5002471;28;20486;-89
2022/10/10 13:03:28;;;;;;;0.10;0.00;;;20.00;99.90;;;;;;5005824;28;20443;-92
2022/10/10 13:05:57;;;;;;;0.10;0.00;;;20.50;99.90;;;;;;5007068;28;20529;-87
2022/10/10 13:08:26;;;;;;;0.10;0.00;;;20.40;99.90;;;;;;5002545;28;21022;-88
2022/10/10 13:11:13;;;;;;;0.10;0.00;;;20.60;99.90;;;;;;5003160;28;20489;-87
2022/10/10 13:13:47;;;;;;;0.10;0.00;;;20.00;99.90;;;;;;5009068;28;20443;-92
2022/10/10 13:16:16;;;;;;;0.10;0.10;;;19.70;99.90;;;;;;5009257;28;20881;-94